Time;durP1;ratioP1;P1;durP2;ratioP2;P2;SDS_P1;SDS_P2;PMS_P1;PMS_P2;Temp;Humidity;BMP_temperature;BMP_pressure;BME280_temperature;BME280_humidity;BME280_pressure;Samples;Min_cycle;Max_cycle;Signal;HPM_P1;HPM_P2
2021/07/20 00:02:02;;;;;;;21.75;14.93;;;23.00;96.60;;;;;;4860762;29;20052;-67
2021/07/20 00:05:09;;;;;;;19.48;15.02;;;23.00;96.50;;;;;;4860409;29;20393;-67
2021/07/20 00:08:13;;;;;;;23.50;15.27;;;23.10;96.30;;;;;;4860317;29;20053;-67
2021/07/20 00:11:17;;;;;;;20.02;14.50;;;23.00;96.10;;;;;;4860232;29;20060;-67
2021/07/20 00:14:21;;;;;;;24.98;13.85;;;23.00;96.10;;;;;;4860172;29;20070;-67
2021/07/20 00:17:27;;;;;;;17.27;13.32;;;23.10;95.90;;;;;;4860169;29;20410;-67
2021/07/20 00:20:32;;;;;;;16.50;13.27;;;23.00;96.00;;;;;;4860028;29;20048;-67
2021/07/20 00:23:36;;;;;;;21.83;13.50;;;23.00;96.10;;;;;;4860034;29;20389;-67
2021/07/20 00:26:41;;;;;;;23.48;13.68;;;23.00;96.00;;;;;;4859946;29;20082;-67
2021/07/20 00:29:45;;;;;;;17.35;13.15;;;23.00;96.00;;;;;;4859827;29;20056;-68
2021/07/20 00:32:49;;;;;;;21.60;13.13;;;23.00;95.90;;;;;;4859297;29;20068;-67
2021/07/20 00:35:53;;;;;;;23.88;14.23;;;22.90;95.80;;;;;;4859177;29;20549;-67
2021/07/20 00:38:58;;;;;;;21.73;14.27;;;22.80;95.90;;;;;;4860071;29;20048;-67
2021/07/20 00:42:03;;;;;;;15.52;12.80;;;22.70;96.50;;;;;;4858890;29;20049;-68
2021/07/20 00:45:09;;;;;;;21.83;12.75;;;22.70;96.50;;;;;;4859036;29;20060;-67
2021/07/20 00:48:17;;;;;;;25.23;13.85;;;22.70;96.20;;;;;;4848490;29;20057;-67
2021/07/20 00:51:21;;;;;;;17.17;12.82;;;22.70;96.30;;;;;;4859878;29;20057;-67
2021/07/20 00:54:26;;;;;;;18.13;12.77;;;22.70;96.30;;;;;;4859557;29;20057;-67
2021/07/20 00:57:31;;;;;;;18.33;12.68;;;22.80;96.20;;;;;;4858842;29;20513;-68
2021/07/20 01:00:36;;;;;;;16.27;11.48;;;22.80;95.80;;;;;;4858788;29;20120;-67
2021/07/20 01:03:41;;;;;;;18.50;11.90;;;22.70;95.90;;;;;;4858785;29;20072;-67
2021/07/20 01:06:48;;;;;;;20.92;12.45;;;22.70;95.90;;;;;;4858683;29;20048;-67
2021/07/20 01:09:58;;;;;;;17.65;12.27;;;22.70;95.90;;;;;;4858550;29;20060;-68
2021/07/20 01:13:04;;;;;;;19.90;13.68;;;22.60;96.20;;;;;;4858460;29;20056;-67
2021/07/20 01:16:09;;;;;;;19.55;13.40;;;22.60;96.40;;;;;;4859532;29;20056;-68
2021/07/20 01:19:17;;;;;;;18.75;13.45;;;22.60;96.00;;;;;;4858395;29;20137;-68
2021/07/20 01:22:29;;;;;;;19.98;12.50;;;22.50;96.10;;;;;;4858701;29;20049;-67
2021/07/20 01:25:36;;;;;;;20.05;12.90;;;22.60;96.30;;;;;;4858339;29;20037;-67
2021/07/20 01:28:41;;;;;;;20.15;12.82;;;22.60;96.30;;;;;;4858649;29;20044;-67
2021/07/20 01:31:51;;;;;;;19.77;12.75;;;22.50;96.40;;;;;;4859380;29;20052;-67
2021/07/20 01:34:57;;;;;;;23.00;12.93;;;22.40;96.30;;;;;;4857992;29;20049;-67
2021/07/20 01:38:04;;;;;;;18.88;13.25;;;22.20;96.70;;;;;;4857936;29;20060;-67
2021/07/20 01:41:13;;;;;;;15.93;12.75;;;22.20;97.10;;;;;;4858540;29;20049;-67
2021/07/20 01:44:18;;;;;;;17.45;12.15;;;22.20;97.00;;;;;;4858174;29;20056;-67
2021/07/20 01:47:28;;;;;;;19.10;12.50;;;22.30;96.90;;;;;;4858084;29;20049;-67
2021/07/20 01:50:35;;;;;;;14.52;12.80;;;22.30;96.80;;;;;;4857878;29;20057;-67
2021/07/20 01:53:40;;;;;;;25.15;12.77;;;22.30;96.70;;;;;;4858241;29;20057;-67
2021/07/20 01:56:49;;;;;;;16.42;11.57;;;22.30;96.70;;;;;;4858142;29;20402;-67
2021/07/20 01:59:55;;;;;;;15.80;10.93;;;22.30;96.70;;;;;;4858785;29;20513;-68
2021/07/20 02:10:22;;;;;;;23.27;11.82;;;22.50;95.60;;;;;;4858674;29;20123;-67
2021/07/20 02:13:52;;;;;;;20.63;13.15;;;22.40;95.60;;;;;;4858054;29;20070;-67
2021/07/20 02:17:19;;;;;;;17.15;12.30;;;22.30;95.60;;;;;;4844399;29;20512;-67
2021/07/20 02:20:30;;;;;;;19.25;13.43;;;22.30;95.90;;;;;;4858619;29;20125;-67
2021/07/20 02:23:41;;;;;;;20.45;14.07;;;22.30;95.60;;;;;;4857729;29;20049;-67
2021/07/20 02:26:47;;;;;;;19.40;12.90;;;22.20;95.70;;;;;;4857602;29;20048;-68
2021/07/20 02:29:58;;;;;;;17.63;13.55;;;22.10;95.90;;;;;;4857614;29;20061;-67
2021/07/20 02:33:03;;;;;;;17.23;13.20;;;22.00;95.90;;;;;;4858688;29;20504;-67
2021/07/20 02:36:09;;;;;;;23.05;14.13;;;21.80;96.50;;;;;;4857321;29;20053;-67
2021/07/20 02:39:15;;;;;;;21.30;12.93;;;21.80;96.70;;;;;;4858228;29;20517;-67
2021/07/20 02:42:25;;;;;;;20.08;12.93;;;21.80;96.50;;;;;;4858595;29;20528;-67
2021/07/20 02:45:33;;;;;;;16.45;12.40;;;21.90;96.40;;;;;;4857419;29;20044;-67
2021/07/20 02:48:40;;;;;;;16.70;12.60;;;22.00;95.90;;;;;;4857453;29;20044;-67
2021/07/20 02:51:49;;;;;;;18.63;12.85;;;22.00;95.80;;;;;;4859348;29;20057;-67
2021/07/20 02:54:56;;;;;;;18.02;12.35;;;21.90;96.00;;;;;;4860899;29;20390;-67
2021/07/20 02:58:02;;;;;;;20.50;13.23;;;21.90;96.20;;;;;;4862055;29;20044;-68
2021/07/20 03:01:07;;;;;;;21.35;13.25;;;21.90;96.20;;;;;;4860848;29;20045;-67
2021/07/20 03:04:13;;;;;;;13.90;11.63;;;21.80;96.20;;;;;;4860688;29;20060;-67
2021/07/20 03:07:24;;;;;;;18.30;11.68;;;21.80;96.40;;;;;;4860720;29;20426;-67
2021/07/20 03:10:31;;;;;;;16.45;11.82;;;21.90;96.10;;;;;;4860475;29;20365;-67
2021/07/20 03:13:41;;;;;;;17.40;11.02;;;22.00;95.60;;;;;;4861711;29;20048;-67
2021/07/20 03:16:49;;;;;;;18.50;11.10;;;22.00;95.20;;;;;;4860827;29;20065;-67
2021/07/20 03:19:56;;;;;;;17.33;12.27;;;22.10;94.80;;;;;;4860515;29;20056;-67
2021/07/20 03:23:05;;;;;;;;;;;22.00;94.90;;;;;;4860882;29;20044;-67
2021/07/20 03:26:11;;;;;;;15.80;10.90;;;21.90;94.80;;;;;;4860305;29;19915;-67
2021/07/20 03:29:22;;;;;;;12.77;10.05;;;21.90;94.50;;;;;;4860332;29;20041;-67
2021/07/20 03:32:29;;;;;;;18.92;11.10;;;22.00;94.20;;;;;;4860316;29;20524;-68
2021/07/20 03:35:35;;;;;;;16.20;11.32;;;21.90;94.50;;;;;;4859896;29;20040;-67
2021/07/20 03:38:41;;;;;;;17.58;10.65;;;21.80;94.60;;;;;;4860113;29;20052;-67
2021/07/20 03:41:46;;;;;;;14.35;10.73;;;21.70;95.00;;;;;;4860082;29;20045;-68
2021/07/20 03:44:53;;;;;;;14.18;10.75;;;21.70;95.00;;;;;;4860289;29;20049;-68
2021/07/20 03:47:58;;;;;;;17.33;10.75;;;21.60;95.30;;;;;;4860117;29;20054;-67
2021/07/20 03:51:30;;;;;;;17.02;11.30;;;21.60;95.60;;;;;;4859997;29;20533;-67
2021/07/20 03:54:35;;;;;;;14.25;11.38;;;21.50;95.80;;;;;;4859894;29;20041;-68
2021/07/20 03:57:41;;;;;;;15.35;10.32;;;21.60;95.80;;;;;;4860621;29;20546;-67
2021/07/20 04:00:50;;;;;;;18.35;10.75;;;21.60;95.90;;;;;;4859750;29;20045;-68
2021/07/20 04:03:56;;;;;;;13.90;10.65;;;21.70;95.60;;;;;;4858567;29;20065;-67
2021/07/20 04:07:05;;;;;;;14.75;10.55;;;21.70;95.50;;;;;;4860228;29;20044;-68
2021/07/20 04:10:15;;;;;;;13.13;10.00;;;21.80;95.50;;;;;;4859569;29;20060;-67
2021/07/20 04:13:37;;;;;;;16.92;9.55;;;21.80;95.30;;;;;;4860594;29;20048;-68
2021/07/20 04:17:11;;;;;;;15.82;10.05;;;21.90;95.30;;;;;;4859487;29;20402;-67
2021/07/20 04:20:16;;;;;;;16.92;10.32;;;22.00;94.70;;;;;;4860346;29;20049;-67
2021/07/20 04:23:22;;;;;;;21.02;11.07;;;22.00;94.70;;;;;;4860205;29;20397;-67
2021/07/20 04:26:44;;;;;;;16.88;10.88;;;22.00;94.80;;;;;;4859190;29;20057;-68
2021/07/20 04:29:48;;;;;;;19.58;10.98;;;21.90;94.80;;;;;;4859232;29;20072;-67
2021/07/20 04:32:54;;;;;;;14.15;9.85;;;21.90;94.70;;;;;;4859063;29;20059;-67
2021/07/20 04:36:04;;;;;;;17.13;9.65;;;22.00;94.50;;;;;;4858973;29;20040;-68
2021/07/20 04:39:10;;;;;;;18.13;10.38;;;22.00;94.30;;;;;;4859440;29;20060;-67
2021/07/20 04:42:14;;;;;;;16.80;10.25;;;22.20;94.20;;;;;;4859370;29;20049;-67
2021/07/20 04:45:20;;;;;;;15.93;9.77;;;22.30;94.10;;;;;;4858959;29;20049;-67
2021/07/20 04:48:28;;;;;;;15.00;9.20;;;22.60;93.90;;;;;;4858931;29;20048;-68
2021/07/20 04:51:49;;;;;;;17.70;8.95;;;23.50;91.90;;;;;;4858752;29;20056;-67
2021/07/20 04:54:57;;;;;;;16.60;9.77;;;24.40;90.00;;;;;;4858546;29;20045;-68
2021/07/20 04:58:02;;;;;;;15.10;10.95;;;24.70;88.40;;;;;;4859270;29;20052;-67
2021/07/20 05:01:08;;;;;;;14.40;10.90;;;25.30;86.40;;;;;;4847599;29;20410;-68
2021/07/20 05:04:16;;;;;;;35.60;28.55;;;25.90;83.10;;;;;;4858616;29;20040;-67
2021/07/20 05:07:24;;;;;;;49.67;37.17;;;26.40;81.60;;;;;;4858644;29;20066;-67
2021/07/20 05:10:36;;;;;;;48.60;34.30;;;26.60;80.70;;;;;;4858513;29;20068;-67
2021/07/20 05:13:53;;;;;;;50.08;35.28;;;26.50;79.90;;;;;;4858087;29;20044;-68
2021/07/20 05:17:01;;;;;;;36.22;25.50;;;26.40;80.60;;;;;;4858427;29;20048;-67
2021/07/20 05:20:09;;;;;;;22.98;16.73;;;26.20;81.20;;;;;;4858567;29;20048;-67
2021/07/20 05:23:35;;;;;;;32.05;18.50;;;26.10;80.70;;;;;;4859513;29;20595;-67
2021/07/20 05:27:00;;;;;;;27.65;12.25;;;26.00;82.00;;;;;;4859188;29;20056;-67
2021/07/20 05:30:06;;;;;;;23.92;14.68;;;26.00;80.80;;;;;;4859316;29;20049;-67
2021/07/20 05:33:19;;;;;;;18.05;11.48;;;26.00;81.70;;;;;;4858977;29;20049;-67
2021/07/20 05:36:31;;;;;;;19.20;9.40;;;26.00;80.90;;;;;;4858014;29;20095;-67
2021/07/20 05:39:37;;;;;;;18.05;8.57;;;25.80;81.40;;;;;;4859179;29;20044;-67
2021/07/20 05:42:50;;;;;;;13.80;7.15;;;25.90;81.90;;;;;;4858034;29;20052;-67
2021/07/20 05:46:16;;;;;;;10.98;7.05;;;26.00;80.80;;;;;;4857857;29;20124;-69
2021/07/20 05:49:20;;;;;;;16.58;7.15;;;26.20;81.00;;;;;;4858045;29;20064;-70
2021/07/20 05:52:28;;;;;;;14.50;7.18;;;26.40;80.70;;;;;;4857821;29;20056;-70
2021/07/20 05:55:37;;;;;;;12.23;5.80;;;26.70;79.30;;;;;;4858652;29;20710;-70
2021/07/20 05:58:43;;;;;;;12.55;6.82;;;27.00;78.40;;;;;;4857841;29;20048;-70
2021/07/20 06:01:51;;;;;;;9.65;6.32;;;27.10;78.50;;;;;;4858692;29;20049;-70
2021/07/20 06:04:56;;;;;;;16.77;7.10;;;27.30;77.90;;;;;;4857638;29;20057;-70
2021/07/20 06:08:02;;;;;;;20.55;6.80;;;27.60;77.90;;;;;;4858403;29;20053;-71
2021/07/20 06:11:08;;;;;;;13.57;6.82;;;27.80;77.00;;;;;;4857973;29;20068;-70
2021/07/20 06:14:12;;;;;;;20.85;8.18;;;28.00;76.60;;;;;;4858497;29;20048;-70
2021/07/20 06:17:21;;;;;;;9.63;6.15;;;28.10;77.00;;;;;;4858341;29;20052;-69
2021/07/20 06:20:26;;;;;;;13.75;6.70;;;28.40;75.60;;;;;;4858612;29;20048;-69
2021/07/20 06:23:34;;;;;;;12.43;7.80;;;28.50;74.90;;;;;;4858815;29;20107;-68
2021/07/20 06:26:40;;;;;;;12.27;6.32;;;28.60;74.80;;;;;;4860582;29;20052;-68
2021/07/20 06:29:46;;;;;;;11.23;6.57;;;28.70;73.60;;;;;;4862759;29;20052;-67
2021/07/20 06:32:51;;;;;;;15.95;7.15;;;29.00;73.00;;;;;;4861439;29;20049;-68
2021/07/20 06:35:55;;;;;;;16.15;6.10;;;29.30;72.40;;;;;;4862148;29;20048;-68
2021/07/20 06:39:00;;;;;;;15.32;6.60;;;29.50;70.70;;;;;;4862002;29;20123;-67
2021/07/20 06:42:04;;;;;;;11.25;6.35;;;29.60;67.90;;;;;;4861785;29;20058;-67
2021/07/20 06:45:09;;;;;;;11.43;5.43;;;29.80;68.80;;;;;;4861742;29;20052;-68
2021/07/20 06:48:17;;;;;;;7.53;5.18;;;29.60;66.10;;;;;;4861313;29;20040;-67
2021/07/20 06:51:23;;;;;;;11.55;5.72;;;29.80;66.70;;;;;;4861648;29;20064;-69
2021/07/20 06:54:27;;;;;;;10.55;6.07;;;30.10;67.10;;;;;;4861835;29;20053;-68
2021/07/20 06:57:32;;;;;;;14.80;5.57;;;30.10;63.70;;;;;;4862018;29;20064;-67
2021/07/20 07:00:36;;;;;;;11.25;5.88;;;30.00;63.10;;;;;;4861640;29;20061;-67
2021/07/20 07:03:50;;;;;;;17.40;6.20;;;29.90;63.70;;;;;;4861538;29;20048;-67
2021/07/20 07:06:56;;;;;;;14.77;7.43;;;29.70;64.60;;;;;;4861482;29;20040;-68
2021/07/20 07:10:02;;;;;;;13.00;6.07;;;29.80;65.30;;;;;;4861435;29;20044;-68
2021/07/20 07:13:08;;;;;;;14.10;6.15;;;30.00;64.50;;;;;;4861399;29;20052;-68
2021/07/20 07:16:13;;;;;;;11.75;6.18;;;30.10;64.00;;;;;;4861582;29;20052;-68
2021/07/20 07:19:19;;;;;;;13.15;6.13;;;30.20;62.90;;;;;;4861307;29;20056;-69
2021/07/20 07:22:25;;;;;;;24.63;6.53;;;30.90;61.90;;;;;;4860319;29;20048;-67
2021/07/20 07:25:31;;;;;;;14.35;5.93;;;32.50;59.10;;;;;;4860350;29;20533;-70
2021/07/20 07:28:37;;;;;;;10.07;5.57;;;33.60;57.60;;;;;;4861109;29;20048;-68
2021/07/20 07:31:50;;;;;;;14.32;6.53;;;34.00;53.60;;;;;;4860269;29;20060;-70
2021/07/20 07:34:54;;;;;;;12.52;5.75;;;33.90;53.30;;;;;;4861450;29;20044;-67
2021/07/20 07:38:00;;;;;;;13.15;6.82;;;34.40;53.60;;;;;;4860754;29;20070;-68
2021/07/20 07:41:05;;;;;;;13.98;6.63;;;34.40;53.70;;;;;;4861105;29;20053;-71
2021/07/20 07:44:14;;;;;;;15.15;5.15;;;34.60;52.30;;;;;;4860808;29;20596;-69
2021/07/20 07:47:19;;;;;;;12.52;6.20;;;34.70;52.40;;;;;;4861273;29;20393;-68
2021/07/20 07:50:24;;;;;;;14.43;6.45;;;35.00;51.00;;;;;;4860904;29;20516;-68
2021/07/20 07:53:29;;;;;;;6.47;5.28;;;34.90;50.80;;;;;;4860874;29;20052;-69
2021/07/20 07:56:33;;;;;;;13.25;6.20;;;34.20;52.00;;;;;;4860716;29;20068;-69
2021/07/20 07:59:39;;;;;;;13.88;6.55;;;34.50;51.60;;;;;;4860538;29;20049;-70
2021/07/20 08:02:56;;;;;;;12.80;6.28;;;35.10;50.10;;;;;;4859286;29;20123;-70
2021/07/20 08:06:03;;;;;;;11.35;5.80;;;35.30;50.10;;;;;;4860626;29;20069;-71
2021/07/20 08:09:09;;;;;;;10.90;6.03;;;35.80;49.30;;;;;;4861179;29;20048;-71
2021/07/20 08:12:14;;;;;;;10.23;5.80;;;36.10;48.40;;;;;;4860817;29;20076;-68
2021/07/20 08:15:18;;;;;;;11.18;5.78;;;36.10;48.30;;;;;;4860807;29;20048;-69
2021/07/20 08:18:24;;;;;;;14.60;5.57;;;36.00;47.80;;;;;;4860563;29;20072;-70
2021/07/20 08:21:28;;;;;;;11.63;5.97;;;35.50;48.30;;;;;;4860815;29;20370;-71
2021/07/20 08:24:35;;;;;;;14.60;5.68;;;34.70;50.00;;;;;;4860161;29;20052;-69
2021/07/20 08:27:48;;;;;;;11.63;6.07;;;34.30;50.80;;;;;;4859873;29;20116;-69
2021/07/20 08:30:56;;;;;;;12.30;6.20;;;34.20;51.70;;;;;;4859287;29;20056;-68
2021/07/20 08:34:02;;;;;;;8.98;5.93;;;34.20;51.30;;;;;;4860128;29;20056;-70
2021/07/20 08:37:08;;;;;;;12.20;6.63;;;33.90;52.10;;;;;;4860466;29;20068;-70
2021/07/20 08:40:27;;;;;;;19.77;7.18;;;33.90;52.70;;;;;;4860104;29;20052;-69
2021/07/20 08:44:10;;;;;;;10.15;5.88;;;33.80;53.20;;;;;;4859741;29;20048;-69
2021/07/20 08:47:27;;;;;;;8.50;6.00;;;33.90;52.40;;;;;;4860013;29;20045;-69
2021/07/20 08:50:52;;;;;;;21.02;6.15;;;33.80;52.80;;;;;;4858915;29;20057;-68
2021/07/20 08:54:13;;;;;;;17.52;6.30;;;34.00;52.50;;;;;;4859657;29;20060;-69
2021/07/20 08:57:25;;;;;;;9.52;6.38;;;33.90;50.50;;;;;;4859475;29;20044;-67
2021/07/20 09:00:38;;;;;;;11.50;7.00;;;33.20;51.50;;;;;;4859211;29;20052;-67
2021/07/20 09:03:53;;;;;;;8.98;6.05;;;33.30;51.40;;;;;;4858940;29;20052;-67
2021/07/20 09:07:06;;;;;;;10.35;5.88;;;33.00;52.60;;;;;;4859480;29;20052;-67
2021/07/20 09:10:12;;;;;;;12.88;6.30;;;33.00;53.00;;;;;;4859592;29;20052;-67
2021/07/20 09:13:21;;;;;;;11.98;6.40;;;32.80;53.40;;;;;;4859499;29;20053;-67
2021/07/20 09:16:32;;;;;;;12.15;6.35;;;32.60;53.30;;;;;;4859347;29;20409;-67
2021/07/20 09:19:42;;;;;;;11.85;6.38;;;32.30;54.00;;;;;;4859365;29;20049;-68
2021/07/20 09:23:08;;;;;;;10.57;5.70;;;32.10;53.70;;;;;;4858960;29;20045;-67
2021/07/20 09:26:20;;;;;;;15.63;6.90;;;32.30;54.10;;;;;;4858079;29;20056;-67
2021/07/20 09:29:28;;;;;;;10.32;6.93;;;32.20;53.50;;;;;;4858307;29;20044;-67
2021/07/20 09:32:54;;;;;;;11.98;6.60;;;32.20;54.20;;;;;;4859080;29;20060;-68
2021/07/20 09:36:10;;;;;;;12.13;7.07;;;32.20;52.70;;;;;;4858814;29;20402;-67
2021/07/20 09:39:45;;;;;;;10.40;6.68;;;32.00;53.60;;;;;;4858942;29;20060;-68
2021/07/20 09:43:08;;;;;;;11.05;6.60;;;31.70;54.10;;;;;;4858506;29;20089;-69
2021/07/20 09:46:19;;;;;;;10.48;6.68;;;31.60;54.60;;;;;;4858033;29;20525;-70
2021/07/20 09:49:32;;;;;;;14.25;8.43;;;31.60;55.30;;;;;;4858859;29;20044;-70
2021/07/20 09:52:58;;;;;;;11.05;6.50;;;31.60;55.70;;;;;;4857696;29;20056;-69
2021/07/20 09:56:31;;;;;;;15.95;7.18;;;31.60;55.50;;;;;;4859013;29;20604;-70
2021/07/20 09:59:47;;;;;;;9.65;6.43;;;31.20;55.50;;;;;;4858620;29;20408;-69
2021/07/20 10:03:23;;;;;;;14.80;7.43;;;31.10;56.50;;;;;;4858783;29;20064;-70
2021/07/20 10:06:42;;;;;;;12.68;7.25;;;31.40;56.70;;;;;;4858694;29;20049;-70
2021/07/20 10:10:06;;;;;;;21.88;7.28;;;31.40;56.10;;;;;;4858726;29;20068;-68
2021/07/20 10:13:22;;;;;;;9.65;6.47;;;31.40;55.90;;;;;;4858583;29;20064;-72
2021/07/20 10:16:50;;;;;;;13.43;7.07;;;31.40;56.20;;;;;;4858627;29;20533;-69
2021/07/20 10:20:02;;;;;;;9.95;6.50;;;31.70;55.00;;;;;;4858485;29;20057;-68
2021/07/20 10:23:35;;;;;;;15.02;7.90;;;31.90;55.10;;;;;;4858493;29;20060;-68
2021/07/20 10:26:46;;;;;;;11.50;7.85;;;32.10;55.00;;;;;;4858707;29;20049;-69
2021/07/20 10:30:03;;;;;;;12.63;7.63;;;32.10;55.10;;;;;;4858280;29;20072;-68
2021/07/20 10:33:18;;;;;;;13.10;6.93;;;32.20;54.70;;;;;;4857699;29;20048;-68
2021/07/20 10:36:35;;;;;;;9.52;6.72;;;32.10;54.70;;;;;;4858220;29;20052;-68
2021/07/20 10:40:14;;;;;;;8.73;6.57;;;32.00;55.20;;;;;;4858376;29;20057;-68
2021/07/20 10:43:29;;;;;;;13.23;6.82;;;31.90;56.10;;;;;;4858619;29;20041;-68
2021/07/20 10:46:35;;;;;;;15.82;6.60;;;31.80;55.90;;;;;;4858061;29;20070;-69
2021/07/20 10:50:00;;;;;;;11.55;6.70;;;31.80;56.00;;;;;;4858424;29;20056;-69
2021/07/20 10:53:24;;;;;;;14.60;6.07;;;31.80;55.40;;;;;;4858379;29;20073;-68
2021/07/20 10:56:50;;;;;;;12.05;7.18;;;31.60;55.70;;;;;;4859020;29;20048;-69
2021/07/20 11:00:09;;;;;;;13.07;6.95;;;31.40;56.30;;;;;;4858396;29;20049;-68
2021/07/20 11:03:29;;;;;;;11.02;6.65;;;31.30;56.40;;;;;;4857968;29;20045;-68
2021/07/20 11:06:37;;;;;;;13.10;6.87;;;31.30;56.50;;;;;;4858182;29;20401;-68
2021/07/20 11:09:42;;;;;;;10.43;6.35;;;31.20;56.70;;;;;;4858221;29;20504;-68
2021/07/20 11:12:57;;;;;;;9.85;6.28;;;31.20;57.40;;;;;;4860272;29;20060;-68
2021/07/20 11:16:06;;;;;;;14.05;7.05;;;31.40;57.10;;;;;;4860750;29;20060;-67
2021/07/20 11:19:12;;;;;;;10.27;7.13;;;31.60;56.60;;;;;;4861476;29;20060;-67
2021/07/20 11:22:17;;;;;;;8.82;6.47;;;31.70;56.50;;;;;;4861238;29;20048;-67
2021/07/20 11:25:22;;;;;;;10.30;6.60;;;31.90;56.60;;;;;;4861084;29;20501;-67
2021/07/20 11:28:27;;;;;;;9.95;7.32;;;31.80;56.10;;;;;;4861093;29;20052;-67
2021/07/20 11:31:41;;;;;;;9.52;5.90;;;31.70;56.50;;;;;;4861148;29;20504;-67
2021/07/20 11:35:07;;;;;;;11.45;6.35;;;31.60;56.60;;;;;;4861108;29;20053;-67
2021/07/20 11:38:14;;;;;;;13.60;6.95;;;31.60;56.60;;;;;;4861712;29;20064;-68
2021/07/20 11:41:24;;;;;;;13.55;6.55;;;31.60;56.80;;;;;;4860262;29;20048;-67
2021/07/20 11:44:41;;;;;;;13.82;6.63;;;31.70;56.70;;;;;;4860405;29;20044;-68
2021/07/20 11:47:58;;;;;;;11.82;6.43;;;31.70;57.00;;;;;;4860770;29;20048;-68
2021/07/20 11:51:08;;;;;;;10.68;6.35;;;31.60;55.10;;;;;;4861041;29;20604;-68
2021/07/20 11:54:27;;;;;;;9.90;6.00;;;31.50;55.40;;;;;;4860667;29;20057;-68
2021/07/20 11:57:59;;;;;;;6.57;5.50;;;31.60;56.30;;;;;;4859973;29;20052;-68
2021/07/20 12:01:15;;;;;;;9.93;5.68;;;31.60;55.90;;;;;;4860797;29;20147;-68
2021/07/20 12:04:37;;;;;;;13.23;5.68;;;31.70;54.70;;;;;;4860210;29;20696;-68
2021/07/20 12:07:51;;;;;;;9.85;5.20;;;31.70;55.10;;;;;;4860495;29;20052;-68
2021/07/20 12:11:21;;;;;;;7.45;5.25;;;31.70;55.60;;;;;;4860387;29;20469;-67
2021/07/20 12:14:25;;;;;;;12.27;5.55;;;31.70;55.60;;;;;;4860028;29;20052;-68
2021/07/20 12:17:32;;;;;;;7.60;5.15;;;31.60;55.10;;;;;;4860396;29;20048;-68
2021/07/20 12:20:37;;;;;;;10.80;5.10;;;31.60;55.30;;;;;;4860225;29;20496;-68
2021/07/20 12:23:41;;;;;;;9.13;5.30;;;31.40;55.40;;;;;;4859054;29;20053;-68
2021/07/20 12:26:48;;;;;;;8.25;5.07;;;31.40;54.90;;;;;;4860028;29;20064;-68
2021/07/20 12:29:53;;;;;;;9.82;5.40;;;31.50;55.10;;;;;;4860070;29;20049;-68
2021/07/20 12:32:58;;;;;;;14.18;6.05;;;31.50;55.00;;;;;;4859866;29;20064;-68
2021/07/20 12:36:04;;;;;;;8.80;5.45;;;31.50;56.20;;;;;;4860042;29;20049;-68
2021/07/20 12:39:13;;;;;;;8.23;5.13;;;31.60;54.90;;;;;;4859332;29;20060;-68
2021/07/20 12:42:17;;;;;;;8.45;5.28;;;31.50;55.10;;;;;;4860178;29;20394;-68
2021/07/20 12:45:23;;;;;;;8.38;5.90;;;31.60;55.30;;;;;;4859286;29;20056;-68
2021/07/20 12:48:30;;;;;;;11.80;5.57;;;31.60;54.90;;;;;;4859448;29;20155;-68
2021/07/20 12:51:34;;;;;;;10.45;5.22;;;31.50;54.50;;;;;;4858400;29;20049;-68
2021/07/20 12:54:43;;;;;;;11.60;5.38;;;31.50;54.20;;;;;;4859439;29;20056;-67
2021/07/20 12:57:56;;;;;;;13.32;5.70;;;31.60;54.40;;;;;;4859913;29;20049;-68
2021/07/20 13:01:01;;;;;;;12.13;5.68;;;31.70;53.30;;;;;;4859670;29;20056;-67
2021/07/20 13:04:06;;;;;;;21.17;5.75;;;33.30;52.20;;;;;;4859481;29;20045;-67
2021/07/20 13:07:10;;;;;;;12.38;5.28;;;34.80;49.20;;;;;;4859421;29;20053;-72
2021/07/20 13:10:15;;;;;;;14.63;6.00;;;36.00;47.40;;;;;;4859417;29;20057;-68
2021/07/20 13:13:21;;;;;;;11.10;5.13;;;36.50;46.80;;;;;;4858336;29;20053;-72
2021/07/20 13:16:32;;;;;;;10.93;6.10;;;36.20;46.40;;;;;;4858952;29;20413;-72
2021/07/20 13:19:36;;;;;;;14.00;7.10;;;35.80;48.30;;;;;;4859236;29;20430;-73
2021/07/20 13:22:41;;;;;;;13.52;7.07;;;35.90;50.90;;;;;;4859076;29;20049;-72
2021/07/20 13:25:49;;;;;;;14.90;6.70;;;35.70;51.30;;;;;;4858052;29;20131;-72
2021/07/20 13:28:55;;;;;;;11.15;6.50;;;35.50;51.40;;;;;;4857368;29;20127;-69
2021/07/20 13:32:06;;;;;;;13.35;7.00;;;35.50;51.50;;;;;;4858210;29;20068;-69
2021/07/20 13:35:11;;;;;;;17.63;6.60;;;35.40;51.20;;;;;;4857973;29;20049;-70
2021/07/20 13:38:15;;;;;;;16.27;6.53;;;35.90;51.70;;;;;;4858605;29;20060;-68
2021/07/20 13:41:21;;;;;;;9.88;6.53;;;35.80;50.70;;;;;;4859025;29;20077;-68
2021/07/20 13:44:27;;;;;;;15.68;7.78;;;36.30;50.40;;;;;;4858785;29;20061;-70
2021/07/20 13:47:58;;;;;;;9.25;6.93;;;36.30;49.70;;;;;;4858696;29;20040;-69
2021/07/20 13:51:04;;;;;;;11.23;7.32;;;36.10;50.30;;;;;;4858885;29;20394;-68
2021/07/20 13:54:09;;;;;;;13.77;8.18;;;35.90;51.20;;;;;;4858658;29;20049;-69
2021/07/20 13:57:13;;;;;;;14.05;7.30;;;36.20;50.30;;;;;;4858530;29;20052;-69
2021/07/20 14:00:21;;;;;;;22.20;8.88;;;36.10;50.10;;;;;;4857222;29;20402;-71
2021/07/20 14:03:29;;;;;;;15.10;7.25;;;36.00;51.10;;;;;;4858673;29;20049;-70
2021/07/20 14:06:34;;;;;;;19.90;7.55;;;35.50;51.60;;;;;;4858508;29;20072;-69
2021/07/20 14:09:39;;;;;;;16.70;8.07;;;35.30;52.70;;;;;;4858858;29;20056;-71
2021/07/20 14:12:45;;;;;;;13.90;7.40;;;35.10;53.20;;;;;;4857868;29;20433;-70
2021/07/20 14:15:50;;;;;;;14.18;8.25;;;35.50;53.20;;;;;;4858592;29;20048;-71
2021/07/20 14:18:55;;;;;;;12.10;7.65;;;35.30;52.70;;;;;;4836966;29;20060;-69
2021/07/20 14:21:59;;;;;;;16.20;7.53;;;35.30;53.40;;;;;;4858659;29;20049;-70
2021/07/20 14:25:04;;;;;;;17.85;7.82;;;35.00;53.40;;;;;;4858127;29;20049;-70
2021/07/20 14:28:08;;;;;;;11.77;7.95;;;35.00;53.90;;;;;;4856822;29;20053;-71
2021/07/20 14:31:14;;;;;;;16.50;8.35;;;34.90;54.70;;;;;;4857349;29;20064;-71
2021/07/20 14:34:21;;;;;;;10.38;7.45;;;34.90;55.20;;;;;;4857997;29;20044;-72
2021/07/20 14:37:47;;;;;;;15.23;7.72;;;34.80;55.20;;;;;;4857768;29;20073;-70
2021/07/20 14:40:51;;;;;;;12.48;7.50;;;34.60;55.40;;;;;;4858289;29;20056;-71
2021/07/20 14:44:02;;;;;;;12.68;6.97;;;34.90;55.20;;;;;;4858105;29;20069;-71
2021/07/20 14:47:06;;;;;;;21.17;8.80;;;34.80;54.80;;;;;;4859576;29;20052;-71
2021/07/20 14:50:28;;;;;;;15.60;7.50;;;35.00;55.20;;;;;;4860954;29;20072;-69
2021/07/20 14:53:33;;;;;;;15.60;7.22;;;34.90;55.20;;;;;;4860497;29;20064;-72
2021/07/20 14:56:49;;;;;;;17.02;7.05;;;34.50;55.30;;;;;;4861605;29;20512;-70
2021/07/20 14:59:53;;;;;;;17.15;7.57;;;34.50;55.20;;;;;;4861593;29;20056;-70
2021/07/20 15:02:57;;;;;;;16.80;7.32;;;34.80;54.60;;;;;;4861643;29;20048;-69
2021/07/20 15:06:05;;;;;;;15.77;6.65;;;35.00;53.90;;;;;;4861514;29;20048;-69
2021/07/20 15:09:13;;;;;;;13.60;6.72;;;35.20;53.40;;;;;;4861296;29;20044;-72
2021/07/20 15:12:23;;;;;;;15.80;7.15;;;35.30;52.60;;;;;;4860717;29;20052;-69
2021/07/20 15:15:33;;;;;;;11.52;6.60;;;35.10;52.60;;;;;;4861241;29;20037;-71
2021/07/20 15:18:58;;;;;;;10.82;6.85;;;35.00;52.60;;;;;;4860780;29;20271;-69
2021/07/20 15:22:06;;;;;;;10.82;6.60;;;34.90;53.10;;;;;;4861404;29;20398;-71
2021/07/20 15:25:11;;;;;;;32.78;8.55;;;34.80;52.90;;;;;;4861171;29;20048;-71
2021/07/20 15:28:17;;;;;;;16.25;6.38;;;34.90;53.40;;;;;;4861061;29;20045;-70
2021/07/20 15:31:21;;;;;;;12.02;6.10;;;34.80;53.10;;;;;;4861331;29;20048;-70
2021/07/20 15:34:31;;;;;;;16.08;6.57;;;35.20;52.90;;;;;;4849385;29;20056;-70
2021/07/20 15:37:35;;;;;;;11.18;5.82;;;35.10;53.00;;;;;;4860103;29;20485;-74
2021/07/20 15:40:39;;;;;;;14.75;5.95;;;34.80;53.50;;;;;;4859679;29;20045;-73
2021/07/20 15:43:44;;;;;;;16.30;6.78;;;34.80;53.80;;;;;;4860414;29;20041;-73
2021/07/20 15:46:48;;;;;;;14.13;6.35;;;35.20;53.30;;;;;;4860177;29;20052;-73
2021/07/20 15:49:56;;;;;;;18.65;6.30;;;35.30;52.70;;;;;;5313603;23;22797;-67
2021/07/20 15:53:08;;;;;;;8.10;5.22;;;35.10;53.30;;;;;;4879137;29;20086;-68
2021/07/20 15:56:13;;;;;;;10.77;5.65;;;34.70;53.60;;;;;;4878877;29;20044;-68
2021/07/20 15:59:17;;;;;;;10.95;5.80;;;34.50;53.70;;;;;;4878679;29;20079;-68
2021/07/20 16:02:21;;;;;;;8.48;5.35;;;34.40;53.80;;;;;;4878833;29;20048;-69
2021/07/20 16:05:28;;;;;;;13.38;5.55;;;33.90;55.40;;;;;;4879397;29;20083;-71
2021/07/20 16:08:33;;;;;;;13.50;5.05;;;33.40;56.50;;;;;;4878788;29;20048;-69
2021/07/20 16:11:38;;;;;;;15.88;6.18;;;33.10;57.20;;;;;;4877539;29;20052;-70
2021/07/20 16:14:42;;;;;;;14.40;5.60;;;32.70;58.10;;;;;;4879041;29;20056;-68
2021/07/20 16:17:47;;;;;;;9.23;5.80;;;32.40;57.70;;;;;;4878402;29;20048;-67
2021/07/20 16:20:57;;;;;;;13.57;6.72;;;32.20;58.90;;;;;;4878713;29;20059;-67